Time;durP1;ratioP1;P1;durP2;ratioP2;P2;SDS_P1;SDS_P2;PMS_P1;PMS_P2;Temp;Humidity;BMP_temperature;BMP_pressure;BME280_temperature;BME280_humidity;BME280_pressure;Samples;Min_cycle;Max_cycle;Signal;HPM_P1;HPM_P2
2022/01/02 00:00:08;;;;;;;7.78;4.68;;;11.40;99.90;;;;;;5033979;28;20053;-77
2022/01/02 00:02:35;;;;;;;9.25;5.13;;;11.30;99.90;;;;;;5033772;28;20487;-77
2022/01/02 00:05:21;;;;;;;13.00;5.32;;;11.30;99.90;;;;;;5034437;28;20095;-76
2022/01/02 00:07:59;;;;;;;11.20;6.15;;;11.30;99.90;;;;;;5033055;28;20053;-78
2022/01/02 00:10:27;;;;;;;10.23;6.43;;;11.20;99.90;;;;;;5033949;28;20041;-76
2022/01/02 00:12:58;;;;;;;9.65;5.28;;;11.20;99.90;;;;;;5033093;28;20049;-76
2022/01/02 00:15:24;;;;;;;10.77;5.40;;;11.20;99.90;;;;;;5032307;28;20041;-77
2022/01/02 00:17:51;;;;;;;8.95;4.75;;;11.20;99.90;;;;;;5034245;28;20057;-77
2022/01/02 00:20:20;;;;;;;11.35;5.07;;;11.20;99.90;;;;;;5033480;28;20525;-76
2022/01/02 00:22:50;;;;;;;10.13;5.53;;;11.10;99.90;;;;;;5033675;28;20053;-77
2022/01/02 00:25:27;;;;;;;9.82;5.53;;;11.10;99.90;;;;;;5034080;28;20057;-77
2022/01/02 00:27:53;;;;;;;10.07;5.40;;;11.10;99.90;;;;;;5033683;28;20049;-77
2022/01/02 00:30:19;;;;;;;10.43;5.03;;;11.00;99.90;;;;;;5048957;28;20050;-77
2022/01/02 00:32:45;;;;;;;11.55;5.90;;;11.00;99.90;;;;;;5033680;28;20056;-77
2022/01/02 00:35:11;;;;;;;12.75;5.53;;;11.00;99.90;;;;;;5048553;28;20060;-77
2022/01/02 00:37:37;;;;;;;10.52;5.85;;;11.00;99.90;;;;;;5033497;28;20089;-78
2022/01/02 00:40:03;;;;;;;10.48;5.53;;;11.00;99.90;;;;;;5031559;28;20080;-77
2022/01/02 00:42:33;;;;;;;9.45;5.88;;;11.00;99.90;;;;;;5032140;28;20509;-78
2022/01/02 00:45:06;;;;;;;12.55;5.35;;;11.00;99.90;;;;;;5033782;28;20423;-77
2022/01/02 00:47:44;;;;;;;10.27;5.53;;;11.00;99.90;;;;;;5033455;28;20053;-77
2022/01/02 00:50:11;;;;;;;9.93;5.25;;;11.00;99.90;;;;;;5032113;28;20053;-79
2022/01/02 00:52:47;;;;;;;11.73;6.03;;;11.00;99.90;;;;;;5033345;28;20056;-78
2022/01/02 00:55:18;;;;;;;8.57;5.47;;;11.00;99.90;;;;;;5033089;28;20502;-78
2022/01/02 00:57:55;;;;;;;8.93;5.30;;;11.00;99.90;;;;;;5033294;28;20054;-77
2022/01/02 01:00:22;;;;;;;9.10;5.10;;;11.00;99.90;;;;;;5032850;28;20065;-77
2022/01/02 01:02:53;;;;;;;10.98;5.05;;;11.00;99.90;;;;;;5032780;28;20050;-77
2022/01/02 01:05:31;;;;;;;9.25;5.22;;;11.00;99.90;;;;;;5032633;28;20699;-78
2022/01/02 01:08:02;;;;;;;11.65;6.00;;;11.00;99.90;;;;;;5032217;28;20053;-76
2022/01/02 01:10:31;;;;;;;12.23;5.40;;;10.90;99.90;;;;;;5032996;28;20049;-76
2022/01/02 01:13:01;;;;;;;10.30;5.68;;;10.90;99.90;;;;;;5032772;28;20124;-77
2022/01/02 01:15:28;;;;;;;11.07;5.72;;;10.90;99.90;;;;;;5033213;28;20045;-77
2022/01/02 01:17:56;;;;;;;9.25;5.63;;;10.90;99.90;;;;;;5032697;28;20072;-77
2022/01/02 01:20:25;;;;;;;10.55;5.38;;;10.90;99.90;;;;;;5032941;28;20053;-79
2022/01/02 01:22:50;;;;;;;13.77;5.65;;;10.90;99.90;;;;;;5031552;28;20114;-77
2022/01/02 01:25:19;;;;;;;10.43;5.80;;;10.90;99.90;;;;;;5032686;28;20124;-77
2022/01/02 01:27:46;;;;;;;7.60;4.50;;;10.90;99.90;;;;;;5033031;28;20056;-77
2022/01/02 01:30:13;;;;;;;10.45;6.18;;;10.90;99.90;;;;;;5032187;28;20042;-81
2022/01/02 01:32:39;;;;;;;12.15;5.47;;;10.90;99.90;;;;;;5032455;28;20041;-77
2022/01/02 01:35:06;;;;;;;10.82;5.63;;;10.90;99.90;;;;;;5032344;28;20065;-77
2022/01/02 01:37:32;;;;;;;10.85;5.43;;;10.90;99.90;;;;;;5032203;28;20063;-77
2022/01/02 01:39:58;;;;;;;12.52;5.80;;;10.90;99.90;;;;;;5031670;28;20045;-77
2022/01/02 01:42:36;;;;;;;11.88;6.22;;;10.90;99.90;;;;;;5032161;28;20091;-77
2022/01/02 01:47:54;;;;;;;13.38;5.43;;;10.80;99.90;;;;;;5031675;28;20546;-77
2022/01/02 01:50:26;;;;;;;9.98;5.25;;;10.80;99.90;;;;;;5031843;28;20041;-77
2022/01/02 01:52:52;;;;;;;11.20;6.10;;;10.80;99.90;;;;;;5032650;28;20135;-78
2022/01/02 01:55:18;;;;;;;9.98;5.60;;;10.80;99.90;;;;;;5032397;28;20172;-77
2022/01/02 01:57:45;;;;;;;10.35;6.13;;;10.80;99.90;;;;;;5032442;28;20057;-78
2022/01/02 02:00:14;;;;;;;11.23;6.03;;;10.80;99.90;;;;;;5032378;28;20136;-77
2022/01/02 02:02:41;;;;;;;9.55;6.13;;;10.90;99.90;;;;;;5032349;28;20049;-78
2022/01/02 02:05:07;;;;;;;10.13;5.57;;;10.80;99.90;;;;;;5032462;28;20406;-77
2022/01/02 02:07:43;;;;;;;10.45;5.60;;;10.90;99.90;;;;;;5032214;28;20053;-77
2022/01/02 02:10:14;;;;;;;12.60;6.25;;;10.80;99.90;;;;;;5031806;28;20089;-77
2022/01/02 02:12:42;;;;;;;10.27;5.40;;;10.90;99.90;;;;;;5031202;28;20053;-77
2022/01/02 02:15:10;;;;;;;11.00;5.88;;;10.90;99.90;;;;;;5032307;28;20049;-77
2022/01/02 02:17:36;;;;;;;15.85;5.72;;;10.90;99.90;;;;;;5031945;28;20132;-77
2022/01/02 02:20:23;;;;;;;11.70;5.05;;;10.90;99.90;;;;;;5030604;28;20057;-78
2022/01/02 02:22:52;;;;;;;10.65;6.10;;;10.90;99.90;;;;;;5031921;28;20409;-77
2022/01/02 02:25:21;;;;;;;11.73;5.85;;;10.90;99.90;;;;;;5032042;28;20049;-77
2022/01/02 02:27:56;;;;;;;10.32;5.80;;;10.90;99.90;;;;;;5031904;28;20057;-77
2022/01/02 02:30:23;;;;;;;14.15;6.10;;;10.90;99.90;;;;;;5031936;28;20054;-78
2022/01/02 02:32:49;;;;;;;11.75;5.97;;;10.90;99.90;;;;;;5018152;28;20057;-77
2022/01/02 02:35:16;;;;;;;12.77;6.13;;;10.90;99.90;;;;;;5011829;28;20045;-78
2022/01/02 02:37:43;;;;;;;14.23;6.10;;;10.90;99.90;;;;;;5012283;28;20140;-77
2022/01/02 02:40:15;;;;;;;12.80;6.45;;;10.90;99.90;;;;;;5010362;28;20050;-78
2022/01/02 02:42:53;;;;;;;13.82;6.03;;;10.90;99.90;;;;;;5011746;28;20085;-77
2022/01/02 02:51:13;;;;;;;11.68;5.85;;;10.90;99.90;;;;;;5012124;28;20123;-78
2022/01/02 02:53:42;;;;;;;11.38;5.78;;;10.90;99.90;;;;;;5012348;28;20053;-77
2022/01/02 02:58:45;;;;;;;10.70;5.80;;;10.90;99.90;;;;;;5011645;28;20434;-78
2022/01/02 03:01:13;;;;;;;10.63;5.72;;;10.90;99.90;;;;;;5014883;28;20046;-76
2022/01/02 03:03:39;;;;;;;9.10;5.50;;;10.90;99.90;;;;;;5014547;28;20049;-77
2022/01/02 03:06:05;;;;;;;12.32;6.38;;;10.90;99.90;;;;;;5014824;28;20053;-78
2022/01/02 03:08:33;;;;;;;12.73;5.65;;;10.90;99.90;;;;;;5032796;28;20049;-78
2022/01/02 03:10:59;;;;;;;13.35;6.32;;;10.90;99.90;;;;;;5035673;28;20379;-78
2022/01/02 03:13:24;;;;;;;13.10;5.93;;;10.90;99.90;;;;;;5035546;28;20045;-77
2022/01/02 03:15:50;;;;;;;10.63;5.95;;;10.80;99.90;;;;;;5035471;28;20751;-77
2022/01/02 03:18:16;;;;;;;12.43;6.25;;;10.80;99.90;;;;;;5035391;28;20054;-77
2022/01/02 03:20:42;;;;;;;12.40;6.60;;;10.80;99.90;;;;;;5035299;28;20060;-78
2022/01/02 03:23:07;;;;;;;10.73;5.78;;;10.80;99.90;;;;;;5035539;28;20531;-77
2022/01/02 03:25:33;;;;;;;14.55;6.38;;;10.80;99.90;;;;;;5035343;28;20565;-77
2022/01/02 03:27:59;;;;;;;11.32;5.90;;;10.80;99.90;;;;;;5035333;28;20054;-77
2022/01/02 03:30:24;;;;;;;13.20;5.38;;;10.80;99.90;;;;;;5035147;28;20053;-78
2022/01/02 03:32:50;;;;;;;12.27;5.88;;;10.70;99.90;;;;;;5035234;28;20120;-78
2022/01/02 03:35:16;;;;;;;11.10;5.30;;;10.70;99.90;;;;;;5034595;28;20045;-78
2022/01/02 03:37:42;;;;;;;12.77;6.15;;;10.70;99.90;;;;;;5034946;28;20527;-77
2022/01/02 03:40:09;;;;;;;12.38;6.38;;;10.70;99.90;;;;;;5034388;28;20112;-78
2022/01/02 03:42:36;;;;;;;12.38;5.53;;;10.70;99.90;;;;;;5034778;28;20509;-78
2022/01/02 03:45:03;;;;;;;10.45;5.57;;;10.80;99.90;;;;;;5034682;28;20573;-77
2022/01/02 03:47:29;;;;;;;12.43;5.82;;;10.70;99.90;;;;;;5035064;28;20053;-78
2022/01/02 03:49:57;;;;;;;10.60;6.05;;;10.80;99.90;;;;;;5034869;28;20041;-77
2022/01/02 03:52:24;;;;;;;11.20;5.90;;;10.80;99.90;;;;;;5034838;28;20049;-77
2022/01/02 03:54:51;;;;;;;12.52;5.82;;;10.80;99.90;;;;;;5034901;28;20080;-78
2022/01/02 03:57:16;;;;;;;9.95;5.70;;;10.80;99.90;;;;;;5034568;28;20516;-78
2022/01/02 03:59:42;;;;;;;10.70;5.07;;;10.80;99.90;;;;;;5034784;28;20041;-76
2022/01/02 04:02:08;;;;;;;12.38;5.43;;;10.80;99.90;;;;;;5033352;28;20071;-80
2022/01/02 04:04:34;;;;;;;10.85;5.28;;;10.80;99.90;;;;;;5033701;28;20068;-80
2022/01/02 04:07:00;;;;;;;9.30;6.28;;;10.90;99.90;;;;;;5029538;28;20501;-82
2022/01/02 04:09:25;;;;;;;11.98;5.25;;;10.90;99.90;;;;;;5013248;28;20394;-78
2022/01/02 04:11:51;;;;;;;11.07;5.50;;;10.90;99.90;;;;;;5012973;28;20085;-76
2022/01/02 04:14:17;;;;;;;12.63;5.28;;;10.90;99.90;;;;;;5014272;28;20042;-78
2022/01/02 04:16:42;;;;;;;9.77;6.05;;;10.90;99.90;;;;;;5014487;28;20053;-77
2022/01/02 04:19:08;;;;;;;11.48;5.85;;;10.90;99.90;;;;;;5014566;28;20053;-77
2022/01/02 04:21:34;;;;;;;10.73;5.40;;;10.90;99.90;;;;;;5014548;28;20046;-77
2022/01/02 04:24:00;;;;;;;12.77;5.70;;;10.90;99.90;;;;;;5014665;28;20133;-77
2022/01/02 04:26:25;;;;;;;9.70;5.70;;;10.80;99.90;;;;;;5014693;28;20497;-76
2022/01/02 04:28:51;;;;;;;13.63;5.45;;;10.80;99.90;;;;;;5013795;28;20100;-77
2022/01/02 04:31:17;;;;;;;11.40;5.57;;;10.80;99.90;;;;;;5015577;28;20081;-76
2022/01/02 04:33:43;;;;;;;12.57;5.78;;;10.80;99.90;;;;;;5034151;28;20127;-77
2022/01/02 04:36:08;;;;;;;12.85;5.90;;;10.80;99.90;;;;;;5033794;28;20057;-76
2022/01/02 04:38:36;;;;;;;13.57;6.38;;;10.80;99.90;;;;;;5033078;28;20049;-78
2022/01/02 04:41:02;;;;;;;12.68;5.78;;;10.80;99.90;;;;;;5033853;28;20037;-77
2022/01/02 04:43:28;;;;;;;15.35;5.50;;;10.80;99.90;;;;;;5032766;28;20053;-77
2022/01/02 04:45:56;;;;;;;10.80;5.38;;;10.80;99.90;;;;;;5033837;28;20053;-77
2022/01/02 04:48:22;;;;;;;12.13;5.75;;;10.80;99.90;;;;;;5033597;28;20060;-77
2022/01/02 04:50:48;;;;;;;9.75;4.97;;;10.90;99.90;;;;;;5033461;28;20041;-77
2022/01/02 04:53:14;;;;;;;11.50;6.00;;;10.90;99.90;;;;;;5033434;28;20080;-77
2022/01/02 04:55:40;;;;;;;11.68;5.70;;;10.90;99.90;;;;;;5033757;28;20057;-77
2022/01/02 04:58:06;;;;;;;11.68;5.70;;;10.90;99.90;;;;;;5033570;28;20453;-76
2022/01/02 05:00:32;;;;;;;9.82;4.60;;;10.90;99.90;;;;;;5033464;28;20500;-77
2022/01/02 05:02:58;;;;;;;9.05;5.35;;;11.00;99.90;;;;;;5033535;28;20057;-77
2022/01/02 05:05:24;;;;;;;11.55;4.90;;;11.00;99.90;;;;;;5016116;28;20092;-77
2022/01/02 05:07:49;;;;;;;11.57;4.90;;;11.10;99.90;;;;;;5033348;28;20052;-77
2022/01/02 05:10:15;;;;;;;9.23;4.82;;;11.10;99.90;;;;;;5032839;28;20092;-77
2022/01/02 05:12:41;;;;;;;11.27;4.85;;;11.10;99.90;;;;;;5033360;28;20046;-77
2022/01/02 05:15:07;;;;;;;10.73;4.40;;;11.20;99.90;;;;;;5032191;28;20119;-77
2022/01/02 05:17:33;;;;;;;12.13;5.07;;;11.20;99.90;;;;;;5033325;28;20056;-77
2022/01/02 05:19:59;;;;;;;13.38;4.70;;;11.20;99.90;;;;;;5033279;28;20049;-77
2022/01/02 05:22:24;;;;;;;12.23;4.90;;;11.30;99.90;;;;;;5032190;28;20045;-78
2022/01/02 05:24:50;;;;;;;14.07;4.57;;;11.30;99.90;;;;;;5033170;28;20072;-78
2022/01/02 05:27:15;;;;;;;17.83;5.82;;;11.30;99.90;;;;;;5033029;28;20532;-80
2022/01/02 05:29:41;;;;;;;9.45;4.60;;;11.30;99.90;;;;;;5031599;28;20063;-78
2022/01/02 05:32:07;;;;;;;9.00;4.00;;;11.30;99.90;;;;;;5024270;28;20042;-79
2022/01/02 05:34:32;;;;;;;9.40;4.20;;;11.40;99.90;;;;;;5012127;28;20048;-80
2022/01/02 05:36:58;;;;;;;10.65;4.40;;;11.40;99.90;;;;;;5013228;28;20065;-76
2022/01/02 05:39:24;;;;;;;12.38;4.50;;;11.40;99.90;;;;;;5012397;28;20060;-76
2022/01/02 05:41:51;;;;;;;10.35;4.40;;;11.40;99.90;;;;;;5013109;28;20096;-77
2022/01/02 05:44:18;;;;;;;11.63;4.65;;;11.40;99.90;;;;;;5013126;28;20064;-78
2022/01/02 05:46:44;;;;;;;9.20;4.78;;;11.30;99.90;;;;;;5013151;28;20089;-77
2022/01/02 05:49:11;;;;;;;11.30;4.05;;;11.40;99.90;;;;;;5013047;28;20046;-81
2022/01/02 05:51:37;;;;;;;9.77;4.72;;;11.40;99.90;;;;;;5011962;28;20053;-77
2022/01/02 05:54:04;;;;;;;10.57;4.18;;;11.40;99.90;;;;;;5012619;28;20057;-77
2022/01/02 05:56:30;;;;;;;9.20;4.38;;;11.50;99.90;;;;;;5012902;28;20050;-80
2022/01/02 05:58:56;;;;;;;8.18;3.47;;;11.50;99.90;;;;;;5011831;28;20080;-78
2022/01/02 06:01:22;;;;;;;17.83;5.28;;;11.60;99.90;;;;;;5012495;28;20506;-77
2022/01/02 06:03:48;;;;;;;9.00;3.58;;;11.60;99.90;;;;;;5012353;28;20054;-80
2022/01/02 06:06:15;;;;;;;11.40;3.72;;;11.70;99.90;;;;;;5012485;28;20050;-77
2022/01/02 06:08:41;;;;;;;5.78;3.10;;;11.80;99.90;;;;;;5030391;28;20073;-81
2022/01/02 06:11:07;;;;;;;9.45;3.42;;;11.80;99.90;;;;;;5032372;28;20198;-81
2022/01/02 06:13:32;;;;;;;9.20;3.75;;;11.90;99.90;;;;;;5030976;28;20053;-79
2022/01/02 06:15:58;;;;;;;11.07;3.15;;;11.90;99.90;;;;;;5032364;28;20054;-80
2022/01/02 06:18:24;;;;;;;5.95;3.03;;;11.90;99.90;;;;;;5032130;28;20045;-81
2022/01/02 06:20:49;;;;;;;12.77;3.10;;;12.00;99.90;;;;;;5032139;28;20667;-80
2022/01/02 06:23:16;;;;;;;7.57;3.28;;;12.00;99.90;;;;;;5030834;28;20064;-80
2022/01/02 06:25:43;;;;;;;10.73;3.53;;;12.00;99.90;;;;;;5032173;28;20058;-80
2022/01/02 06:28:08;;;;;;;7.13;3.00;;;12.00;99.90;;;;;;5014588;28;20114;-79
2022/01/02 06:30:34;;;;;;;7.70;3.25;;;12.00;99.90;;;;;;5031963;28;20056;-78
2022/01/02 06:33:00;;;;;;;9.07;4.18;;;12.10;99.90;;;;;;5016709;28;20590;-78
2022/01/02 06:35:29;;;;;;;7.70;3.25;;;12.10;99.90;;;;;;5011849;28;20496;-80
2022/01/02 06:37:55;;;;;;;5.80;2.70;;;12.00;99.90;;;;;;5012458;28;20041;-80
2022/01/02 06:40:22;;;;;;;8.30;3.70;;;12.00;99.90;;;;;;5011398;28;20093;-81
2022/01/02 06:42:48;;;;;;;9.00;3.28;;;12.10;99.90;;;;;;5011030;28;20046;-79
2022/01/02 06:45:14;;;;;;;8.60;3.83;;;12.00;99.90;;;;;;5011645;28;20050;-79
2022/01/02 06:47:40;;;;;;;9.10;3.35;;;12.00;99.90;;;;;;5010510;28;20133;-77
2022/01/02 06:50:06;;;;;;;10.63;4.25;;;11.90;99.90;;;;;;5012156;28;20132;-77
2022/01/02 06:52:32;;;;;;;5.30;2.78;;;11.90;99.90;;;;;;5012103;28;20199;-81
2022/01/02 06:54:58;;;;;;;10.90;3.05;;;11.90;99.90;;;;;;5011972;28;20133;-79
2022/01/02 06:57:24;;;;;;;7.93;3.05;;;11.90;99.90;;;;;;5010983;28;20406;-77
2022/01/02 06:59:50;;;;;;;10.95;3.85;;;11.90;99.90;;;;;;5012000;28;20143;-78
2022/01/02 07:02:17;;;;;;;8.07;3.58;;;11.90;99.90;;;;;;5011858;28;20120;-78
2022/01/02 07:04:43;;;;;;;9.82;3.90;;;11.90;99.90;;;;;;5011971;28;20046;-79
2022/01/02 07:07:09;;;;;;;8.32;3.45;;;11.90;99.90;;;;;;5017986;28;20049;-80
2022/01/02 07:09:36;;;;;;;11.00;3.58;;;11.90;99.90;;;;;;5031042;28;20053;-78
2022/01/02 07:12:03;;;;;;;8.70;3.33;;;11.90;99.90;;;;;;5031603;28;20104;-76
2022/01/02 07:14:30;;;;;;;10.63;3.92;;;11.90;99.90;;;;;;5030381;28;20103;-80
2022/01/02 07:16:57;;;;;;;8.98;3.65;;;11.90;99.90;;;;;;5031291;28;20460;-76
2022/01/02 07:19:23;;;;;;;10.05;3.88;;;11.80;99.90;;;;;;5031615;28;20053;-77
2022/01/02 07:21:50;;;;;;;7.28;3.47;;;11.80;99.90;;;;;;5031171;28;20052;-79
2022/01/02 07:24:17;;;;;;;9.88;3.38;;;11.70;99.90;;;;;;5030120;28;20049;-79
2022/01/02 07:26:43;;;;;;;10.57;4.32;;;11.80;99.90;;;;;;5030338;28;20441;-80
2022/01/02 07:29:09;;;;;;;8.48;3.33;;;11.70;99.90;;;;;;5031503;28;20057;-80
2022/01/02 07:31:35;;;;;;;11.13;4.13;;;11.70;99.90;;;;;;5031127;28;20162;-82
2022/01/02 07:34:01;;;;;;;6.18;3.08;;;11.70;99.90;;;;;;5031296;28;20053;-80
2022/01/02 07:36:26;;;;;;;8.15;4.18;;;11.70;99.90;;;;;;5031085;28;20458;-78
2022/01/02 07:38:52;;;;;;;8.85;3.95;;;11.70;99.90;;;;;;5029424;28;20403;-80
2022/01/02 07:41:18;;;;;;;9.40;3.72;;;11.70;99.90;;;;;;5031577;28;20462;-80
2022/01/02 07:43:44;;;;;;;7.10;3.75;;;11.70;99.90;;;;;;5031342;28;20049;-79
2022/01/02 07:46:09;;;;;;;7.55;4.03;;;11.70;99.90;;;;;;5031449;28;20482;-80
2022/01/02 07:48:35;;;;;;;11.73;3.97;;;11.70;99.90;;;;;;5035018;28;20083;-79
2022/01/02 07:51:01;;;;;;;8.30;4.20;;;11.70;99.90;;;;;;5034888;28;20054;-78
2022/01/02 07:53:26;;;;;;;9.45;3.72;;;11.70;99.90;;;;;;5034913;28;20418;-73
2022/01/02 07:55:52;;;;;;;11.20;4.63;;;11.70;99.90;;;;;;5034927;28;20054;-73
2022/01/02 07:58:18;;;;;;;8.15;3.63;;;11.70;99.90;;;;;;5034778;28;20516;-74
2022/01/02 08:00:44;;;;;;;8.27;4.47;;;11.70;99.90;;;;;;5034292;28;20052;-74
2022/01/02 08:03:10;;;;;;;8.25;3.75;;;11.60;99.90;;;;;;5034529;28;20045;-74
2022/01/02 08:05:35;;;;;;;10.38;4.22;;;11.60;99.90;;;;;;5034771;28;20187;-74
2022/01/02 08:08:01;;;;;;;9.57;4.00;;;11.60;99.90;;;;;;5021282;28;20143;-74
2022/01/02 08:10:27;;;;;;;7.85;3.83;;;11.60;99.90;;;;;;5014063;28;20057;-74
2022/01/02 08:12:53;;;;;;;8.55;4.57;;;11.60;99.90;;;;;;5014700;28;20145;-74
2022/01/02 08:15:20;;;;;;;9.18;4.13;;;11.60;99.90;;;;;;5014699;28;20093;-74
2022/01/02 08:17:46;;;;;;;5.63;3.38;;;11.60;99.90;;;;;;5014548;28;20050;-74
2022/01/02 08:20:13;;;;;;;6.50;2.97;;;11.70;99.90;;;;;;5013110;28;20093;-74
2022/01/02 08:22:38;;;;;;;7.75;3.33;;;11.70;99.90;;;;;;5014587;28;20085;-74
2022/01/02 08:25:05;;;;;;;8.82;3.70;;;11.70;99.90;;;;;;5014532;28;20439;-74
2022/01/02 08:27:31;;;;;;;5.70;3.47;;;11.60;99.90;;;;;;5014423;28;20054;-74
2022/01/02 08:29:57;;;;;;;7.65;3.28;;;11.60;99.90;;;;;;5014492;28;20109;-73
2022/01/02 08:32:23;;;;;;;5.85;3.78;;;11.50;99.90;;;;;;5034362;28;20080;-74
2022/01/02 08:34:48;;;;;;;7.15;3.70;;;11.40;99.90;;;;;;5054072;28;20044;-74
2022/01/02 08:37:15;;;;;;;9.57;4.10;;;11.40;99.90;;;;;;5053897;28;20057;-74
2022/01/02 08:39:42;;;;;;;8.80;4.95;;;11.40;99.90;;;;;;5051072;28;20053;-74
2022/01/02 08:42:08;;;;;;;6.75;3.78;;;11.30;99.90;;;;;;5050915;28;20047;-83
2022/01/02 08:44:35;;;;;;;6.95;3.45;;;11.30;99.90;;;;;;5030596;28;20482;-85
2022/01/02 08:47:00;;;;;;;9.15;3.83;;;11.30;99.90;;;;;;5030211;28;20049;-82
2022/01/02 08:49:26;;;;;;;8.35;3.85;;;11.30;99.90;;;;;;5033414;28;20045;-87
2022/01/02 08:51:54;;;;;;;6.82;3.80;;;11.30;99.90;;;;;;5032417;28;20500;-82
2022/01/02 08:54:19;;;;;;;9.15;3.80;;;11.40;99.90;;;;;;5028514;28;20406;-84
2022/01/02 08:56:45;;;;;;;7.07;3.58;;;11.40;99.90;;;;;;5023666;28;20056;-84
2022/01/02 08:59:11;;;;;;;15.88;4.57;;;11.40;99.90;;;;;;5022782;28;20141;-84
2022/01/02 09:01:37;;;;;;;7.97;3.70;;;11.40;99.90;;;;;;5022901;28;20099;-87
2022/01/02 09:04:03;;;;;;;11.07;3.63;;;11.40;99.90;;;;;;5032806;28;20044;-86
2022/01/02 09:06:28;;;;;;;9.48;3.72;;;11.40;99.90;;;;;;5033648;28;20033;-83
2022/01/02 09:08:55;;;;;;;5.72;3.25;;;11.40;99.90;;;;;;5031708;28;20057;-84
2022/01/02 09:11:22;;;;;;;6.40;3.42;;;11.50;99.90;;;;;;5028121;28;20057;-85
2022/01/02 09:13:47;;;;;;;7.90;3.25;;;11.60;99.90;;;;;;5024828;28;20057;-84
2022/01/02 09:16:13;;;;;;;7.18;3.13;;;11.60;99.90;;;;;;5031074;28;20049;-83
2022/01/02 09:18:39;;;;;;;5.28;3.08;;;11.70;99.90;;;;;;5048443;28;20057;-83
2022/01/02 09:21:05;;;;;;;5.22;3.88;;;11.70;99.90;;;;;;5053461;28;20045;-88
2022/01/02 09:23:30;;;;;;;6.10;3.00;;;11.70;99.90;;;;;;5053720;28;20057;-82
2022/01/02 09:25:56;;;;;;;8.27;3.50;;;11.60;99.90;;;;;;5052634;28;20438;-84
2022/01/02 09:28:22;;;;;;;13.27;3.85;;;11.60;99.90;;;;;;5052611;28;20440;-81
2022/01/02 09:30:48;;;;;;;8.10;3.58;;;11.60;99.90;;;;;;5052877;28;20132;-84
2022/01/02 09:33:14;;;;;;;6.03;3.40;;;11.50;99.90;;;;;;5017694;28;20121;-84
2022/01/02 09:35:41;;;;;;;6.80;3.50;;;11.50;99.90;;;;;;5025385;28;20466;-84
2022/01/02 09:38:10;;;;;;;8.57;4.15;;;11.40;99.90;;;;;;5032932;28;20084;-83
2022/01/02 09:40:36;;;;;;;8.35;4.03;;;11.40;99.90;;;;;;5031567;28;20518;-85
2022/01/02 09:43:03;;;;;;;8.05;3.28;;;11.40;99.90;;;;;;5030864;28;20099;-86
2022/01/02 09:45:33;;;;;;;7.18;3.05;;;11.40;99.90;;;;;;5014946;28;20579;-82
2022/01/02 09:48:00;;;;;;;5.25;2.85;;;11.50;99.90;;;;;;5032731;28;20513;-84
2022/01/02 09:50:25;;;;;;;9.27;3.30;;;11.50;99.90;;;;;;5033265;28;20049;-88
2022/01/02 09:52:51;;;;;;;6.45;3.05;;;11.60;99.90;;;;;;5031395;28;20056;-86
2022/01/02 09:55:17;;;;;;;7.20;2.92;;;11.50;99.90;;;;;;5031466;28;20055;-85
2022/01/02 09:57:47;;;;;;;6.82;3.70;;;11.50;99.90;;;;;;5015356;28;20053;-85
2022/01/02 10:00:15;;;;;;;9.05;4.15;;;11.50;99.90;;;;;;5031189;28;20049;-82
2022/01/02 10:02:53;;;;;;;7.93;3.10;;;11.50;99.90;;;;;;5029862;28;20089;-80
2022/01/02 10:05:21;;;;;;;9.45;3.85;;;11.60;99.90;;;;;;5031881;28;20088;-81
2022/01/02 10:07:47;;;;;;;6.10;3.20;;;11.60;99.90;;;;;;5031851;28;20402;-86
2022/01/02 10:10:13;;;;;;;6.13;3.22;;;11.60;99.90;;;;;;5031570;28;20045;-87
2022/01/02 10:12:39;;;;;;;8.50;3.45;;;11.60;99.90;;;;;;5031183;28;20053;-87
2022/01/02 10:15:20;;;;;;;7.78;3.25;;;11.60;99.90;;;;;;5033009;28;20398;-83
2022/01/02 10:18:09;;;;;;;9.13;3.75;;;11.60;99.90;;;;;;5032891;28;20049;-82
2022/01/02 10:20:45;;;;;;;7.45;3.25;;;11.60;99.90;;;;;;5032525;28;20388;-86
2022/01/02 10:23:23;;;;;;;8.75;3.45;;;11.60;99.90;;;;;;5030955;28;20456;-78
2022/01/02 10:25:57;;;;;;;7.38;3.70;;;11.60;99.90;;;;;;5031328;28;20076;-81
2022/01/02 10:28:26;;;;;;;9.00;3.60;;;11.70;99.90;;;;;;5031734;28;20146;-82
2022/01/02 10:30:55;;;;;;;9.85;3.75;;;11.70;99.90;;;;;;5031503;28;20045;-80
2022/01/02 10:33:21;;;;;;;7.30;4.05;;;11.70;99.90;;;;;;5029830;28;20054;-82
2022/01/02 10:35:54;;;;;;;5.63;3.15;;;11.70;99.90;;;;;;5031380;28;20072;-80
2022/01/02 10:38:21;;;;;;;7.60;4.22;;;11.80;99.90;;;;;;5031812;28;20049;-84
2022/01/02 10:40:47;;;;;;;5.40;3.25;;;11.80;99.90;;;;;;5030645;28;20107;-86
2022/01/02 10:43:25;;;;;;;6.85;3.60;;;11.90;99.90;;;;;;5032055;28;20064;-85
2022/01/02 10:45:52;;;;;;;8.30;3.70;;;11.90;99.90;;;;;;5031678;28;20046;-89
2022/01/02 10:48:33;;;;;;;6.70;3.78;;;11.90;99.90;;;;;;5030989;28;20049;-87
2022/01/02 10:51:17;;;;;;;7.00;4.57;;;11.90;99.90;;;;;;5030474;28;20114;-82
2022/01/02 10:53:54;;;;;;;8.25;4.28;;;11.90;99.90;;;;;;5032039;28;20049;-85
2022/01/02 10:56:25;;;;;;;8.15;4.03;;;11.90;99.90;;;;;;5030184;28;20143;-83
2022/01/02 10:58:51;;;;;;;6.40;3.67;;;11.90;99.90;;;;;;5031817;28;20183;-85
2022/01/02 11:01:17;;;;;;;10.00;4.35;;;11.90;99.90;;;;;;5030383;28;20046;-84
2022/01/02 11:03:47;;;;;;;7.25;3.83;;;11.90;99.90;;;;;;5031305;28;20057;-89
2022/01/02 11:06:23;;;;;;;9.10;4.32;;;11.90;99.90;;;;;;5030655;28;20049;-84
2022/01/02 11:08:49;;;;;;;;;;;11.90;99.90;;;;;;5010821;28;20073;-87
2022/01/02 11:11:18;;;;;;;8.32;4.22;;;11.90;99.90;;;;;;5011269;28;19921;-85
2022/01/02 11:13:44;;;;;;;6.35;4.05;;;12.00;99.90;;;;;;5011149;28;20839;-84
2022/01/02 11:16:10;;;;;;;8.45;4.13;;;12.00;99.90;;;;;;4994353;28;20058;-83
2022/01/02 11:18:36;;;;;;;8.82;4.35;;;12.00;99.90;;;;;;5011272;28;20050;-83
2022/01/02 11:21:04;;;;;;;6.80;4.43;;;12.00;99.90;;;;;;5012731;28;20049;-82
2022/01/02 11:23:35;;;;;;;6.65;3.97;;;12.00;99.90;;;;;;5015320;28;20116;-82
2022/01/02 11:26:39;;;;;;;8.18;4.00;;;11.90;99.90;;;;;;5029919;28;20057;-82
2022/01/02 11:29:05;;;;;;;7.47;3.95;;;12.00;99.90;;;;;;5035081;28;20049;-79
2022/01/02 11:31:32;;;;;;;8.52;4.47;;;12.00;99.90;;;;;;5037825;28;20398;-80
2022/01/02 11:33:58;;;;;;;9.98;4.35;;;12.00;99.90;;;;;;5051669;28;20051;-82
2022/01/02 11:36:33;;;;;;;6.93;5.05;;;12.00;99.90;;;;;;5033128;28;20068;-85
2022/01/02 11:39:08;;;;;;;8.38;4.63;;;12.00;99.90;;;;;;5034405;28;20139;-81
2022/01/02 11:41:51;;;;;;;8.70;5.07;;;12.00;99.90;;;;;;5032285;28;20119;-83
2022/01/02 11:44:18;;;;;;;9.48;4.28;;;12.00;99.90;;;;;;5033326;28;20049;-78
2022/01/02 11:46:53;;;;;;;9.20;4.70;;;12.10;99.90;;;;;;5034585;28;20452;-81
2022/01/02 11:49:38;;;;;;;6.85;4.53;;;12.10;99.90;;;;;;5033866;28;20613;-83
2022/01/02 11:52:07;;;;;;;9.60;4.82;;;12.10;99.90;;;;;;5034705;28;20052;-82
2022/01/02 11:54:35;;;;;;;10.48;4.88;;;12.10;99.90;;;;;;5034345;28;20049;-79
2022/01/02 11:57:15;;;;;;;7.70;4.22;;;12.10;99.90;;;;;;5034729;28;20498;-77
2022/01/02 11:59:45;;;;;;;8.77;4.82;;;12.10;99.90;;;;;;5034184;28;20053;-82
2022/01/02 12:02:26;;;;;;;9.63;4.30;;;12.10;99.90;;;;;;5033847;28;20053;-80
2022/01/02 12:07:37;;;;;;;10.32;4.30;;;12.10;99.90;;;;;;5026021;28;20053;-82
2022/01/02 12:10:20;;;;;;;8.23;4.13;;;12.20;99.90;;;;;;5014018;28;20145;-79
2022/01/02 12:13:18;;;;;;;7.10;3.50;;;12.20;99.90;;;;;;5014065;28;20085;-79
2022/01/02 12:15:43;;;;;;;;;;;12.20;99.90;;;;;;5015042;28;20065;-83
2022/01/02 12:18:25;;;;;;;6.90;4.07;;;12.20;99.90;;;;;;5014360;28;19925;-82
2022/01/02 12:20:51;;;;;;;7.43;4.30;;;12.10;99.90;;;;;;5013490;28;20188;-83
2022/01/02 12:23:35;;;;;;;5.65;3.17;;;12.10;99.90;;;;;;5014641;28;20042;-82
2022/01/02 12:26:03;;;;;;;7.07;3.67;;;12.10;99.90;;;;;;5014176;28;20046;-82
2022/01/02 12:28:47;;;;;;;9.32;3.95;;;12.10;99.90;;;;;;5014197;28;20050;-81
2022/01/02 12:31:15;;;;;;;9.57;4.45;;;12.10;99.90;;;;;;5014464;28;20068;-81
2022/01/02 12:33:43;;;;;;;6.57;3.90;;;12.10;99.90;;;;;;5054020;28;20044;-82
2022/01/02 12:36:14;;;;;;;7.55;4.10;;;12.10;99.90;;;;;;5053432;28;20510;-82
2022/01/02 12:38:51;;;;;;;9.05;4.10;;;12.10;99.90;;;;;;5054116;28;20061;-80
2022/01/02 12:41:22;;;;;;;5.68;3.50;;;12.10;99.90;;;;;;5053953;28;20091;-83
2022/01/02 12:44:04;;;;;;;9.02;4.03;;;12.10;99.90;;;;;;5054221;28;20371;-81
2022/01/02 12:46:42;;;;;;;8.82;3.95;;;12.10;99.90;;;;;;5052694;28;20084;-80
2022/01/02 12:49:19;;;;;;;7.43;3.20;;;12.10;99.90;;;;;;5052759;28;20084;-81
2022/01/02 12:51:50;;;;;;;7.10;3.83;;;12.00;99.90;;;;;;5053309;28;20501;-80
2022/01/02 12:54:19;;;;;;;6.82;3.65;;;12.00;99.90;;;;;;5047978;28;20033;-82
2022/01/02 12:56:53;;;;;;;9.07;3.55;;;12.00;99.90;;;;;;5032023;28;20478;-83
2022/01/02 12:59:21;;;;;;;9.73;3.60;;;12.00;99.90;;;;;;5030213;28;20052;-83
2022/01/02 13:01:47;;;;;;;5.75;2.67;;;12.00;99.90;;;;;;5031926;28;20052;-79